Faringdon, United Kingdom
Current Conditions -  °F | °C
As of 3:50 AM on Saturday 29 Nov 2014 (Local Time) from EGVN Reporting Station
Haze Haze  
Wind Chill: 45°   Ceiling: Unl
Heat Index: 48°   Visibility: 3mi
Dew Point: 48°   Wind: 8mph
Humidity: 100%   Direction: 60°ENE
Pressure: 29.74"   Gusts: NA
Location:  51.66°N, 1.59°W
Report Text: EGVN 290350Z 06007KT 5000 BR SCT170 SCT200 09/09 Q1007 WHT TEMPO 4000 GRN
Loading
Personal Weather Stations






























Interactive Weather Map New forecast layout! Learn more

10-Day Weather Forecast

Advertisements
Track Severe Weather on mobile